Time;durP1;ratioP1;P1;durP2;ratioP2;P2;SDS_P1;SDS_P2;PMS_P1;PMS_P2;Temp;Humidity;BMP_temperature;BMP_pressure;BME280_temperature;BME280_humidity;BME280_pressure;Samples;Min_cycle;Max_cycle;Signal;HPM_P1;HPM_P2
2020/12/17 00:00:20;;;;;;;60.60;30.10;;;;;;;4.67;92.81;100663.90;1792801;79;25636;-68
2020/12/17 00:02:48;;;;;;;62.13;30.63;;;;;;;4.71;92.89;100664.63;1792621;78;25273;-68
2020/12/17 00:05:15;;;;;;;60.00;31.87;;;;;;;4.71;92.84;100666.81;1792846;80;25138;-67
2020/12/17 00:07:42;;;;;;;61.63;31.20;;;;;;;4.72;92.93;100663.27;1792878;78;25486;-69
2020/12/17 00:10:11;;;;;;;62.20;31.43;;;;;;;4.69;92.90;100667.75;1792861;79;25304;-69
2020/12/17 00:12:38;;;;;;;55.17;29.13;;;;;;;4.67;92.97;100664.36;1792831;78;25272;-68
2020/12/17 00:15:08;;;;;;;59.10;30.27;;;;;;;4.67;92.99;100665.20;1792793;79;25700;-68
2020/12/17 00:17:50;;;;;;;60.63;30.63;;;;;;;4.68;93.36;100659.56;1814873;77;26935;-68
2020/12/17 00:20:21;;;;;;;58.40;29.07;;;;;;;4.63;93.17;100663.16;1786387;78;25221;-68
2020/12/17 00:22:48;;;;;;;57.77;30.57;;;;;;;4.64;93.17;100661.40;1785858;80;25209;-67
2020/12/17 00:25:18;;;;;;;56.20;29.20;;;;;;;4.63;93.22;100663.63;1786523;80;25327;-67
2020/12/17 00:27:46;;;;;;;53.67;27.20;;;;;;;4.61;93.26;100660.23;1786417;80;25383;-67
2020/12/17 00:30:16;;;;;;;52.67;28.57;;;;;;;4.62;93.28;100663.22;1786501;79;25288;-67
2020/12/17 00:32:43;;;;;;;56.97;30.07;;;;;;;4.62;93.42;100667.13;1786438;79;25289;-67
2020/12/17 00:35:09;;;;;;;54.67;28.37;;;;;;;4.60;93.37;100667.18;1786384;80;25746;-67
2020/12/17 00:37:36;;;;;;;56.67;31.30;;;;;;;4.63;93.41;100663.63;1786394;79;25308;-67
2020/12/17 00:40:06;;;;;;;62.43;32.27;;;;;;;4.61;93.28;100662.84;1786412;79;25261;-67
2020/12/17 00:42:32;;;;;;;60.43;29.77;;;;;;;4.63;93.39;100670.14;1786380;79;25295;-68
2020/12/17 00:45:00;;;;;;;53.33;28.77;;;;;;;4.62;93.42;100663.22;1786368;80;25714;-68
2020/12/17 00:47:29;;;;;;;56.23;31.07;;;;;;;4.59;93.66;100659.41;1786279;79;25260;-69
2020/12/17 00:49:57;;;;;;;56.87;31.00;;;;;;;4.58;93.62;100657.73;1782906;79;25272;-68
2020/12/17 00:52:24;;;;;;;57.97;31.07;;;;;;;4.59;93.49;100658.11;1755180;80;25673;-68
2020/12/17 00:54:50;;;;;;;59.50;31.10;;;;;;;4.60;93.46;100655.45;1755223;81;25259;-68
2020/12/17 00:57:17;;;;;;;54.90;29.53;;;;;;;4.62;93.56;100650.19;1755250;80;25237;-68
2020/12/17 00:59:44;;;;;;;54.33;30.07;;;;;;;4.64;93.57;100652.28;1755326;81;25286;-68
2020/12/17 01:02:11;;;;;;;47.27;27.40;;;;;;;4.64;93.57;100653.58;1755250;81;25270;-69
2020/12/17 01:04:37;;;;;;;51.73;29.57;;;;;;;4.66;93.61;100653.09;1755264;80;25302;-68
2020/12/17 01:07:04;;;;;;;50.07;29.53;;;;;;;4.63;93.54;100644.08;1755172;81;25720;-68
2020/12/17 01:09:31;;;;;;;48.30;28.93;;;;;;;4.64;93.55;100644.46;1755386;80;25215;-68
2020/12/17 01:11:57;;;;;;;48.90;28.87;;;;;;;4.64;93.48;100645.33;1755235;81;25312;-68
2020/12/17 01:14:24;;;;;;;49.50;29.93;;;;;;;4.68;93.51;100647.83;1755381;81;25238;-68
2020/12/17 01:16:51;;;;;;;48.50;27.80;;;;;;;4.68;93.42;100648.67;1757994;80;25187;-68
2020/12/17 01:19:17;;;;;;;48.97;28.87;;;;;;;4.69;93.36;100636.48;1730577;82;25205;-68
2020/12/17 01:21:44;;;;;;;45.53;27.77;;;;;;;4.67;93.40;100644.35;1760969;81;25267;-68
2020/12/17 01:24:10;;;;;;;51.00;28.97;;;;;;;4.68;93.32;100639.55;1760946;81;25301;-67
2020/12/17 01:26:37;;;;;;;47.73;28.40;;;;;;;4.68;93.33;100644.77;1753344;81;25298;-68
2020/12/17 01:29:04;;;;;;;50.33;29.93;;;;;;;4.71;93.27;100632.92;1733457;82;25223;-68
2020/12/17 01:31:30;;;;;;;51.83;29.53;;;;;;;4.71;93.23;100631.62;1760402;80;25501;-68
2020/12/17 01:33:57;;;;;;;50.63;30.03;;;;;;;4.73;93.14;100635.02;1760296;81;25661;-68
2020/12/17 01:36:24;;;;;;;47.03;28.53;;;;;;;4.71;93.07;100639.44;1752863;81;25226;-67
2020/12/17 01:38:50;;;;;;;50.60;29.13;;;;;;;4.68;93.02;100634.34;1733439;82;25238;-67
2020/12/17 01:41:17;;;;;;;45.97;27.63;;;;;;;4.63;92.91;100631.89;1760213;80;25300;-68
2020/12/17 01:43:46;;;;;;;41.60;26.37;;;;;;;4.59;92.92;100635.53;1760403;81;25256;-69
2020/12/17 01:46:15;;;;;;;44.57;27.57;;;;;;;4.60;93.01;100635.91;1760371;81;25098;-68
2020/12/17 01:48:42;;;;;;;43.00;25.67;;;;;;;4.61;93.15;100638.09;1752876;81;25262;-67
2020/12/17 01:51:09;;;;;;;49.23;28.23;;;;;;;4.61;93.02;100627.20;1733460;81;25818;-67
2020/12/17 01:53:37;;;;;;;43.80;27.73;;;;;;;4.60;93.00;100622.88;1760265;81;25329;-68
2020/12/17 01:56:12;;;;;;;44.47;28.17;;;;;;;4.58;93.04;100620.80;1760438;81;25035;-67
2020/12/17 01:58:42;;;;;;;41.50;26.03;;;;;;;4.58;93.03;100618.66;1752920;81;25340;-68
2020/12/17 02:01:12;;;;;;;46.07;27.47;;;;;;;4.58;92.99;100612.14;1733513;82;25439;-68
2020/12/17 02:03:40;;;;;;;42.20;26.33;;;;;;;4.57;93.01;100607.82;1760239;81;25686;-68
2020/12/17 02:06:06;;;;;;;45.37;27.70;;;;;;;4.60;93.04;100612.92;1760287;81;25232;-69
2020/12/17 02:08:38;;;;;;;41.97;26.43;;;;;;;4.61;93.04;100613.33;1752817;81;25219;-68
2020/12/17 02:11:09;;;;;;;48.83;28.23;;;;;;;4.63;92.94;100618.03;1752713;81;25599;-68
2020/12/17 02:13:36;;;;;;;50.30;29.40;;;;;;;4.63;92.93;100616.27;1733387;82;25334;-68
2020/12/17 02:16:04;;;;;;;44.60;27.47;;;;;;;4.64;92.86;100624.92;1760065;80;25258;-67
2020/12/17 02:18:31;;;;;;;47.47;27.13;;;;;;;4.62;92.89;100621.53;1760347;81;25170;-68
2020/12/17 02:20:58;;;;;;;46.63;27.80;;;;;;;4.62;92.93;100621.53;1752843;81;25267;-67
2020/12/17 02:23:24;;;;;;;44.90;26.63;;;;;;;4.63;92.88;100623.23;1733514;82;25626;-68
2020/12/17 02:25:52;;;;;;;43.93;26.00;;;;;;;4.63;92.84;100621.94;1760252;80;25342;-69
2020/12/17 02:28:20;;;;;;;48.10;28.13;;;;;;;4.62;92.83;100627.58;1760145;81;25137;-69
2020/12/17 02:30:48;;;;;;;43.20;26.10;;;;;;;4.62;92.91;100630.19;1732642;81;25123;-67
2020/12/17 02:33:15;;;;;;;42.40;23.87;;;;;;;4.62;92.92;100632.79;1752875;81;25299;-67
2020/12/17 02:35:42;;;;;;;45.73;27.27;;;;;;;4.63;92.94;100638.88;1733488;82;25274;-68
2020/12/17 02:38:09;;;;;;;45.80;27.47;;;;;;;4.63;92.88;100637.11;1760220;80;25302;-67
2020/12/17 02:40:35;;;;;;;45.77;27.43;;;;;;;4.62;92.91;100631.48;1760259;81;25303;-67
2020/12/17 02:43:02;;;;;;;39.07;24.53;;;;;;;4.68;92.99;100629.12;1752753;81;25139;-67
2020/12/17 02:45:29;;;;;;;44.13;25.83;;;;;;;4.67;92.89;100633.09;1733466;82;25328;-68
2020/12/17 02:47:56;;;;;;;45.23;26.13;;;;;;;4.64;92.84;100627.52;1760234;80;25192;-67
2020/12/17 02:50:22;;;;;;;43.43;26.57;;;;;;;4.64;92.84;100624.92;1760335;81;25260;-68
2020/12/17 02:52:49;;;;;;;43.13;25.33;;;;;;;4.64;92.89;100619.70;1752547;81;25776;-67
2020/12/17 02:55:16;;;;;;;40.00;25.23;;;;;;;4.63;92.84;100616.27;1752750;81;25299;-67
2020/12/17 02:57:44;;;;;;;40.17;24.20;;;;;;;4.61;92.86;100612.03;1760272;81;25288;-68
2020/12/17 03:00:11;;;;;;;36.73;23.70;;;;;;;4.59;92.85;100621.20;1752735;81;25610;-68
2020/12/17 03:02:38;;;;;;;39.27;24.93;;;;;;;4.55;93.08;100620.06;1733294;82;25715;-67
2020/12/17 03:05:05;;;;;;;37.47;24.73;;;;;;;4.54;92.95;100626.17;1760278;80;25069;-67
2020/12/17 03:07:33;;;;;;;42.53;25.77;;;;;;;4.54;92.97;100628.34;1760250;81;25612;-67
2020/12/17 03:10:00;;;;;;;40.43;25.23;;;;;;;4.56;92.91;100629.56;1752727;81;25677;-68
2020/12/17 03:12:27;;;;;;;39.87;24.60;;;;;;;4.52;92.90;100626.22;1733488;82;25305;-68
2020/12/17 03:14:53;;;;;;;44.23;27.20;;;;;;;4.55;92.92;100631.33;1760140;81;25669;-67
2020/12/17 03:17:21;;;;;;;42.27;28.10;;;;;;;4.56;92.85;100630.86;1761446;81;25378;-68
2020/12/17 03:19:47;;;;;;;40.73;26.93;;;;;;;4.55;92.86;100631.33;1750936;81;25282;-69
2020/12/17 03:22:14;;;;;;;38.47;27.17;;;;;;;4.56;92.88;100630.86;1742057;82;25265;-68
2020/12/17 03:24:41;;;;;;;42.10;26.00;;;;;;;4.56;92.83;100634.34;1763243;80;25210;-69
2020/12/17 03:27:07;;;;;;;37.67;24.63;;;;;;;4.57;92.81;100634.72;1763168;81;25204;-68
2020/12/17 03:29:34;;;;;;;36.50;23.87;;;;;;;4.60;92.79;100624.65;1750754;81;25611;-69
2020/12/17 03:32:01;;;;;;;43.00;27.33;;;;;;;4.59;92.73;100634.23;1742129;82;25221;-68
2020/12/17 03:34:29;;;;;;;41.80;26.20;;;;;;;4.61;92.81;100628.97;1763278;80;25337;-68
2020/12/17 03:36:56;;;;;;;38.50;25.73;;;;;;;4.64;92.78;100628.83;1763102;81;25263;-68
2020/12/17 03:39:22;;;;;;;40.00;26.60;;;;;;;4.64;92.69;100631.43;1750925;82;25392;-69
2020/12/17 03:41:49;;;;;;;36.73;25.23;;;;;;;4.64;92.65;100636.64;1763201;81;25292;-67
2020/12/17 03:44:16;;;;;;;39.10;26.20;;;;;;;4.65;92.71;100627.47;1750852;82;25302;-67
2020/12/17 03:46:42;;;;;;;38.17;25.27;;;;;;;4.68;92.71;100625.69;1763106;81;25767;-69
2020/12/17 03:49:09;;;;;;;37.10;23.87;;;;;;;4.70;92.67;100628.61;1750855;81;25262;-66
2020/12/17 03:51:37;;;;;;;37.47;25.40;;;;;;;4.72;92.62;100628.55;1741978;81;25190;-67
2020/12/17 03:54:05;;;;;;;39.97;25.20;;;;;;;4.70;92.55;100629.91;1763131;81;25305;-68
2020/12/17 03:56:32;;;;;;;35.93;24.53;;;;;;;4.69;92.54;100623.45;1763106;81;25668;-67
2020/12/17 03:58:58;;;;;;;35.43;23.77;;;;;;;4.67;92.49;100620.91;1750772;81;25302;-67
2020/12/17 04:01:25;;;;;;;36.87;24.90;;;;;;;4.67;92.53;100613.08;1763230;81;25303;-68
2020/12/17 04:03:54;;;;;;;36.67;25.10;;;;;;;4.68;92.50;100611.34;1750708;82;25197;-68
2020/12/17 04:06:20;;;;;;;38.53;25.03;;;;;;;4.65;92.51;100608.39;1741983;82;25510;-68
2020/12/17 04:08:47;;;;;;;37.73;24.67;;;;;;;4.66;92.46;100603.59;1763176;80;25270;-67
2020/12/17 04:11:13;;;;;;;37.43;24.37;;;;;;;4.65;92.46;100605.32;1763160;81;25331;-68
2020/12/17 04:13:40;;;;;;;36.80;24.73;;;;;;;4.64;92.45;100605.38;1750901;82;25081;-67
2020/12/17 04:16:07;;;;;;;37.07;23.87;;;;;;;4.63;92.44;100599.78;1763102;81;25083;-68
2020/12/17 04:18:34;;;;;;;37.27;23.47;;;;;;;4.62;92.44;100594.16;1751754;80;25653;-67
2020/12/17 04:21:00;;;;;;;43.23;25.10;;;;;;;4.64;92.35;100593.65;1752255;80;25266;-67
2020/12/17 04:23:27;;;;;;;36.63;24.00;;;;;;;4.61;92.31;100592.48;1727903;83;25346;-68
2020/12/17 04:25:54;;;;;;;38.30;25.13;;;;;;;4.58;92.30;100591.30;1754682;81;25310;-69
2020/12/17 04:28:20;;;;;;;37.47;25.17;;;;;;;4.57;92.34;100588.28;1754544;81;25123;-69
2020/12/17 04:30:47;;;;;;;38.80;26.40;;;;;;;4.55;92.31;100585.73;1754403;81;25583;-69
2020/12/17 04:33:14;;;;;;;38.83;24.50;;;;;;;4.55;92.33;100575.30;1727906;83;25093;-66
2020/12/17 04:35:40;;;;;;;35.07;23.73;;;;;;;4.58;92.28;100576.96;1754604;81;25166;-67
2020/12/17 04:38:07;;;;;;;34.37;23.47;;;;;;;4.56;92.20;100574.84;1727833;83;25310;-66
2020/12/17 04:40:34;;;;;;;33.23;23.70;;;;;;;4.56;92.25;100576.15;1754716;80;25207;-69
2020/12/17 04:43:01;;;;;;;37.60;24.27;;;;;;;4.57;92.21;100577.86;1725197;81;25143;-67
2020/12/17 04:45:28;;;;;;;34.50;23.53;;;;;;;4.56;92.13;100581.36;1754582;81;25189;-67
2020/12/17 04:47:55;;;;;;;34.50;23.83;;;;;;;4.56;92.11;100587.88;1752046;80;25192;-67
2020/12/17 04:50:22;;;;;;;34.90;23.33;;;;;;;4.57;92.11;100589.12;1699584;81;25045;-69
2020/12/17 04:52:48;;;;;;;32.63;22.80;;;;;;;4.57;91.97;100595.63;1675523;83;25187;-68
2020/12/17 04:55:15;;;;;;;30.57;22.00;;;;;;;4.58;91.99;100591.30;1754441;80;25357;-67
2020/12/17 04:57:45;;;;;;;33.40;23.40;;;;;;;4.58;91.89;100586.08;1754540;81;25164;-67
2020/12/17 05:00:15;;;;;;;34.43;22.17;;;;;;;4.57;91.79;100590.42;1754374;81;25680;-68
2020/12/17 05:02:46;;;;;;;32.13;22.27;;;;;;;4.56;91.75;100591.34;1752222;80;25179;-68
2020/12/17 05:05:13;;;;;;;31.73;21.30;;;;;;;4.55;91.70;100590.94;1727730;83;25089;-68
2020/12/17 05:07:40;;;;;;;27.97;20.30;;;;;;;4.53;91.67;100587.55;1754735;81;25258;-68
2020/12/17 05:10:07;;;;;;;31.50;21.27;;;;;;;4.53;91.53;100580.20;1728048;83;25204;-67
2020/12/17 05:12:34;;;;;;;35.30;22.77;;;;;;;4.47;91.39;100582.55;1754681;81;25571;-67
2020/12/17 05:15:01;;;;;;;31.53;21.23;;;;;;;4.50;91.51;100581.61;1728056;83;25251;-67
2020/12/17 05:17:28;;;;;;;31.10;22.73;;;;;;;4.44;91.49;100578.33;1754572;81;25318;-68
2020/12/17 05:19:54;;;;;;;30.83;22.47;;;;;;;4.44;91.53;100586.14;1754734;81;26399;-67
2020/12/17 05:22:21;;;;;;;29.13;21.20;;;;;;;4.47;91.54;100587.77;1676809;81;25457;-68
2020/12/17 05:24:48;;;;;;;32.53;21.90;;;;;;;4.50;91.50;100586.82;1725087;81;25214;-68
2020/12/17 05:27:15;;;;;;;34.30;22.53;;;;;;;4.48;91.42;100592.55;1727966;83;25101;-68
2020/12/17 05:29:42;;;;;;;31.07;21.57;;;;;;;4.49;91.40;100594.22;1754604;80;25139;-68
2020/12/17 05:32:11;;;;;;;31.83;22.50;;;;;;;4.48;91.36;100589.94;1754544;81;25109;-67
2020/12/17 05:34:39;;;;;;;31.10;22.67;;;;;;;4.46;91.36;100590.83;1752316;80;25362;-68
2020/12/17 05:37:06;;;;;;;33.73;22.87;;;;;;;4.45;91.29;100593.03;1727864;83;25753;-67
2020/12/17 05:39:33;;;;;;;30.90;21.37;;;;;;;4.46;91.31;100597.34;1754748;81;25065;-68
2020/12/17 05:42:00;;;;;;;33.33;22.50;;;;;;;4.50;91.25;100589.42;1754886;81;25053;-68
2020/12/17 05:44:29;;;;;;;31.07;22.17;;;;;;;4.49;91.24;100587.71;1752250;80;25638;-67
2020/12/17 05:46:57;;;;;;;32.63;22.57;;;;;;;4.52;91.21;100594.12;1727987;83;25227;-67
2020/12/17 05:49:29;;;;;;;32.20;22.57;;;;;;;4.55;91.23;100591.41;1754588;81;25100;-68
2020/12/17 05:52:16;;;;;;;31.93;21.53;;;;;;;4.55;91.16;100594.01;1754663;81;25110;-68
2020/12/17 05:55:02;;;;;;;34.47;23.63;;;;;;;4.60;91.09;100595.98;1818271;78;27519;-67
2020/12/17 05:57:29;;;;;;;33.70;23.63;;;;;;;4.54;90.99;100599.69;1789483;79;25619;-68
2020/12/17 06:00:03;;;;;;;33.70;23.40;;;;;;;4.57;90.96;100600.00;1789406;79;25260;-68
2020/12/17 06:02:34;;;;;;;32.87;23.00;;;;;;;4.56;90.83;100605.68;1789259;79;25224;-68
2020/12/17 06:05:10;;;;;;;34.07;24.93;;;;;;;4.55;90.95;100605.73;1761558;80;25212;-68
2020/12/17 06:07:48;;;;;;;33.07;22.93;;;;;;;4.55;90.85;100605.27;1789470;79;25643;-68
2020/12/17 06:10:31;;;;;;;33.63;24.40;;;;;;;4.56;90.77;100607.41;1789493;79;25212;-68
2020/12/17 06:13:01;;;;;;;33.37;23.43;;;;;;;4.54;90.71;100606.20;1789362;79;25223;-68
2020/12/17 06:15:31;;;;;;;36.33;25.33;;;;;;;4.52;90.68;100609.75;1789409;79;25338;-68
2020/12/17 06:18:03;;;;;;;35.03;24.33;;;;;;;4.54;90.74;100620.95;1789343;79;25333;-67
2020/12/17 06:20:32;;;;;;;35.37;24.17;;;;;;;4.55;90.78;100626.58;1789304;79;25070;-67
2020/12/17 06:23:03;;;;;;;33.57;24.33;;;;;;;4.60;90.78;100623.34;1789400;79;25320;-68
2020/12/17 06:25:33;;;;;;;33.67;23.13;;;;;;;4.61;90.74;100627.20;1789472;79;25283;-68
2020/12/17 06:28:00;;;;;;;34.53;23.37;;;;;;;4.64;90.69;100628.83;1789336;79;25721;-68
2020/12/17 06:30:32;;;;;;;31.17;22.50;;;;;;;4.67;90.71;100625.27;1789336;79;25267;-67
2020/12/17 06:33:05;;;;;;;31.33;22.27;;;;;;;4.68;90.61;100629.59;1789437;79;25296;-68
2020/12/17 06:35:43;;;;;;;30.27;22.17;;;;;;;4.68;90.58;100632.20;1789420;79;25593;-67
2020/12/17 06:38:12;;;;;;;37.83;23.77;;;;;;;4.69;90.58;100630.80;1789413;79;25268;-68
2020/12/17 06:40:39;;;;;;;30.70;22.10;;;;;;;4.71;90.51;100632.05;1789261;79;25645;-69
2020/12/17 06:43:31;;;;;;;32.20;22.67;;;;;;;4.71;90.39;100639.44;1789430;79;25279;-68
2020/12/17 06:45:59;;;;;;;32.20;23.17;;;;;;;4.72;90.46;100632.00;1789420;79;25284;-68
2020/12/17 06:48:41;;;;;;;32.60;22.70;;;;;;;4.74;90.33;100626.73;1789490;79;25703;-68
2020/12/17 06:51:38;;;;;;;31.33;21.17;;;;;;;4.73;90.30;100631.11;1761104;79;25219;-68
2020/12/17 06:54:19;;;;;;;31.67;20.63;;;;;;;4.75;90.16;100633.19;1749962;81;25336;-68
2020/12/17 06:57:18;;;;;;;30.30;20.20;;;;;;;4.74;90.08;100626.30;1756463;81;25102;-68
2020/12/17 07:00:06;;;;;;;32.90;22.10;;;;;;;4.72;89.96;100633.30;1756304;81;25255;-68
2020/12/17 07:02:40;;;;;;;30.50;22.23;;;;;;;4.72;90.03;100640.28;1755933;81;25113;-69
2020/12/17 07:05:06;;;;;;;36.90;24.73;;;;;;;4.74;89.88;100638.46;1755987;81;25263;-68
2020/12/17 07:07:39;;;;;;;46.03;29.80;;;;;;;4.74;89.83;100634.55;1734238;81;25474;-68
2020/12/17 07:10:06;;;;;;;36.50;25.43;;;;;;;4.72;89.74;100642.89;1754088;81;25762;-67
2020/12/17 07:12:40;;;;;;;36.03;22.83;;;;;;;4.70;89.33;100647.31;1712729;80;25323;-67
2020/12/17 07:15:37;;;;;;;33.03;23.43;;;;;;;4.66;89.12;100651.80;1738838;81;25239;-68
2020/12/17 07:18:26;;;;;;;31.53;21.50;;;;;;;4.61;88.99;100640.69;1760516;80;25366;-69
2020/12/17 07:21:06;;;;;;;33.30;22.73;;;;;;;4.57;88.92;100644.30;1738620;81;25321;-69
2020/12/17 07:23:39;;;;;;;32.17;21.93;;;;;;;4.50;88.86;100644.13;1760561;81;25216;-70
2020/12/17 07:26:12;;;;;;;32.57;21.93;;;;;;;4.43;88.87;100644.34;1738813;81;25285;-68
2020/12/17 07:28:40;;;;;;;31.87;22.40;;;;;;;4.40;88.92;100648.81;1760687;80;25619;-69
2020/12/17 07:31:07;;;;;;;32.87;22.20;;;;;;;4.38;88.90;100650.63;1760529;80;25241;-69
2020/12/17 07:33:40;;;;;;;36.57;23.87;;;;;;;4.39;88.82;100649.28;1763701;80;25348;-69
2020/12/17 07:36:08;;;;;;;39.30;23.60;;;;;;;4.37;88.86;100651.06;1763698;80;25528;-69
2020/12/17 07:38:38;;;;;;;34.77;23.97;;;;;;;4.36;88.80;100653.29;1763709;80;25910;-69
2020/12/17 07:41:04;;;;;;;42.23;25.33;;;;;;;4.33;88.71;100640.83;1763679;80;25198;-68
2020/12/17 07:43:40;;;;;;;35.77;24.20;;;;;;;4.27;88.52;100645.78;1706183;83;25661;-68
2020/12/17 07:46:08;;;;;;;32.00;21.60;;;;;;;4.22;88.56;100650.31;1738560;81;25353;-68
2020/12/17 07:48:47;;;;;;;31.67;21.80;;;;;;;4.16;88.57;100644.03;1760521;80;25232;-69
2020/12/17 07:51:22;;;;;;;32.10;20.03;;;;;;;4.12;88.55;100641.13;1738579;81;25409;-69
2020/12/17 07:53:53;;;;;;;36.57;20.40;;;;;;;4.05;88.47;100653.03;1753763;80;25304;-69
2020/12/17 07:56:21;;;;;;;33.17;21.90;;;;;;;3.98;88.43;100645.05;1744788;81;25278;-69
2020/12/17 07:58:49;;;;;;;32.90;21.03;;;;;;;3.96;88.55;100653.36;1762151;80;25348;-69
2020/12/17 08:01:16;;;;;;;29.00;19.73;;;;;;;3.95;88.55;100650.81;1762171;80;25329;-67
2020/12/17 08:03:49;;;;;;;33.67;21.50;;;;;;;3.95;88.47;100651.65;1762208;80;25630;-68
2020/12/17 08:06:26;;;;;;;32.63;20.87;;;;;;;4.00;88.47;100648.90;1849709;76;26795;-67
2020/12/17 08:09:01;;;;;;;37.07;21.47;;;;;;;3.93;88.14;100646.95;1819760;77;25326;-68
2020/12/17 08:11:28;;;;;;;35.13;23.00;;;;;;;3.92;88.02;100637.44;1819828;77;25286;-68
2020/12/17 08:14:00;;;;;;;36.77;22.73;;;;;;;3.93;87.80;100631.80;1819833;78;25250;-68
2020/12/17 08:16:27;;;;;;;32.83;22.47;;;;;;;3.92;87.70;100635.29;1819778;78;25634;-67
2020/12/17 08:18:55;;;;;;;34.17;22.93;;;;;;;3.90;87.80;100632.31;1819836;77;25318;-67
2020/12/17 08:21:22;;;;;;;29.83;20.17;;;;;;;3.89;87.76;100632.36;1819772;77;25614;-68
2020/12/17 08:23:48;;;;;;;31.70;20.53;;;;;;;3.90;87.62;100637.52;1819750;77;25251;-68
2020/12/17 08:26:27;;;;;;;28.50;18.87;;;;;;;3.90;87.62;100639.25;1819739;78;25262;-68
2020/12/17 08:28:54;;;;;;;29.17;19.33;;;;;;;3.92;87.60;100645.23;1818907;77;25258;-68
2020/12/17 08:31:24;;;;;;;30.03;19.93;;;;;;;3.93;87.45;100639.61;1819665;77;25607;-68
2020/12/17 08:33:53;;;;;;;27.50;19.13;;;;;;;3.94;87.51;100638.69;1819900;77;25199;-68
2020/12/17 08:36:23;;;;;;;30.10;19.67;;;;;;;3.94;87.31;100639.56;1819734;77;25310;-68
2020/12/17 08:39:10;;;;;;;24.80;17.60;;;;;;;3.92;87.05;100636.13;1788064;78;25084;-67
2020/12/17 08:41:55;;;;;;;30.73;19.87;;;;;;;3.96;87.08;100642.11;1819925;77;25662;-68
2020/12/17 08:44:30;;;;;;;28.20;18.43;;;;;;;4.00;87.35;100648.44;1819789;77;25081;-68
2020/12/17 08:47:00;;;;;;;29.50;18.60;;;;;;;4.05;87.04;100645.69;1819881;77;25271;-68
2020/12/17 08:49:30;;;;;;;29.07;18.97;;;;;;;4.09;86.73;100640.79;1818602;77;25638;-68
2020/12/17 08:51:58;;;;;;;31.80;19.77;;;;;;;4.12;86.77;100642.42;1789388;78;25297;-68
2020/12/17 08:54:34;;;;;;;28.57;17.17;;;;;;;4.12;86.66;100641.95;1787601;79;25292;-68
2020/12/17 08:57:10;;;;;;;27.53;18.67;;;;;;;4.11;86.14;100649.85;1787484;79;25304;-68
2020/12/17 08:59:38;;;;;;;25.47;17.07;;;;;;;4.09;86.53;100645.53;1787655;79;25197;-68
2020/12/17 09:02:05;;;;;;;30.57;18.53;;;;;;;4.11;86.22;100640.28;1787580;79;25237;-68
2020/12/17 09:04:32;;;;;;;19.80;14.30;;;;;;;4.13;86.40;100640.23;1756901;80;25134;-67
2020/12/17 09:07:02;;;;;;;22.00;14.60;;;;;;;4.16;85.87;100637.06;1787462;80;25681;-67
2020/12/17 09:09:31;;;;;;;19.73;13.80;;;;;;;4.16;85.89;100640.97;1787397;79;25633;-67
2020/12/17 09:11:59;;;;;;;21.07;14.10;;;;;;;4.17;85.93;100630.09;1787637;80;25293;-67
2020/12/17 09:14:34;;;;;;;21.93;14.33;;;;;;;4.17;85.97;100641.81;1756959;80;25206;-66
2020/12/17 09:17:13;;;;;;;23.90;15.43;;;;;;;4.18;85.91;100632.64;1732787;80;25756;-67
2020/12/17 09:19:41;;;;;;;26.40;18.13;;;;;;;4.21;85.90;100634.30;1786871;79;25206;-68
2020/12/17 09:22:08;;;;;;;23.97;15.13;;;;;;;4.26;85.58;100637.59;1786710;79;25325;-68
2020/12/17 09:24:37;;;;;;;20.27;14.80;;;;;;;4.23;85.40;100638.53;1786830;79;25321;-67
2020/12/17 09:27:29;;;;;;;21.67;14.93;;;;;;;4.25;85.04;100637.19;1786982;80;25297;-67
2020/12/17 09:30:19;;;;;;;22.30;15.33;;;;;;;4.20;84.64;100635.20;1709528;82;25222;-67
2020/12/17 09:33:01;;;;;;;18.87;14.03;;;;;;;4.29;84.64;100633.59;1818300;78;26941;-68
2020/12/17 09:35:30;;;;;;;19.97;14.00;;;;;;;4.24;84.46;100641.98;1789542;80;25736;-68
2020/12/17 09:41:08;;;;;;;24.63;15.10;;;;;;;4.33;84.61;100636.46;1868365;75;26896;-67
2020/12/17 09:43:47;;;;;;;16.10;12.07;;;;;;;4.24;84.56;100643.28;1844352;76;25261;-69
2020/12/17 09:46:14;;;;;;;17.40;12.97;;;;;;;4.25;84.39;100642.39;1834971;76;25584;-68
2020/12/17 09:48:41;;;;;;;20.27;14.27;;;;;;;4.19;84.21;100637.39;1844635;76;25233;-68
2020/12/17 09:51:08;;;;;;;20.97;13.73;;;;;;;4.20;84.21;100640.41;1827552;77;25233;-69
2020/12/17 09:53:43;;;;;;;19.80;14.07;;;;;;;4.23;84.44;100633.79;1815616;77;25338;-67
2020/12/17 09:56:11;;;;;;;20.27;13.37;;;;;;;4.22;84.12;100639.46;1831034;77;25286;-68
2020/12/17 09:58:45;;;;;;;19.60;14.07;;;;;;;4.20;84.06;100638.64;1838458;77;25289;-68
2020/12/17 10:01:12;;;;;;;18.50;13.50;;;;;;;4.26;84.23;100641.50;1822005;77;25746;-68
2020/12/17 10:03:39;;;;;;;18.77;13.13;;;;;;;4.33;84.23;100642.14;1854678;77;25240;-68
2020/12/17 10:06:06;;;;;;;18.30;14.30;;;;;;;4.36;84.29;100640.27;1858627;77;25725;-68
2020/12/17 10:08:33;;;;;;;17.63;13.20;;;;;;;4.40;83.75;100637.94;1859511;77;25146;-68
2020/12/17 10:11:00;;;;;;;17.63;13.03;;;;;;;4.38;83.73;100631.09;1820966;77;25284;-68
2020/12/17 10:13:27;;;;;;;21.23;13.97;;;;;;;4.35;83.37;100630.73;1833245;76;25131;-68
2020/12/17 10:15:54;;;;;;;19.07;13.80;;;;;;;4.40;83.82;100631.42;1841452;77;25682;-68
2020/12/17 10:18:21;;;;;;;16.93;13.10;;;;;;;4.46;83.76;100632.52;1848977;77;25359;-68
2020/12/17 10:20:48;;;;;;;19.10;14.37;;;;;;;4.54;84.06;100632.68;1847906;77;25710;-68
2020/12/17 10:23:15;;;;;;;18.43;13.03;;;;;;;4.62;83.84;100626.27;1836793;76;25191;-68
2020/12/17 10:25:44;;;;;;;17.83;13.17;;;;;;;4.69;83.47;100633.41;1816411;77;25178;-68
2020/12/17 10:28:10;;;;;;;19.10;12.73;;;;;;;4.70;83.21;100632.52;1859310;76;25716;-69
2020/12/17 10:30:37;;;;;;;17.80;13.17;;;;;;;4.68;83.14;100634.34;1853828;77;25551;-69
2020/12/17 10:33:04;;;;;;;15.73;12.33;;;;;;;4.68;83.10;100627.83;1858393;77;25046;-68
2020/12/17 10:35:31;;;;;;;16.77;13.07;;;;;;;4.73;82.54;100627.66;1808650;76;25144;-68
2020/12/17 10:37:58;;;;;;;18.00;13.00;;;;;;;4.67;82.67;100630.02;1830311;77;25362;-68
2020/12/17 10:40:25;;;;;;;15.77;11.57;;;;;;;4.72;82.90;100619.44;1790906;77;25598;-68
2020/12/17 10:42:53;;;;;;;15.80;12.63;;;;;;;4.78;82.87;100621.36;1786473;77;25110;-71
2020/12/17 10:45:21;;;;;;;18.63;12.07;;;;;;;4.85;82.37;100621.14;1798459;78;25447;-69
2020/12/17 10:47:48;;;;;;;17.50;13.00;;;;;;;4.84;82.62;100628.08;1825694;78;25759;-67
2020/12/17 10:50:15;;;;;;;13.70;10.90;;;;;;;4.87;82.48;100621.45;1820533;78;25805;-68
2020/12/17 10:52:44;;;;;;;16.53;11.70;;;;;;;4.90;82.61;100621.81;1788434;78;25342;-67
2020/12/17 10:55:11;;;;;;;14.57;11.70;;;;;;;4.96;82.34;100620.25;1815952;78;25177;-68
2020/12/17 10:57:38;;;;;;;14.57;11.33;;;;;;;4.97;82.16;100617.58;1812827;78;25069;-68
2020/12/17 11:00:06;;;;;;;18.03;11.80;;;;;;;4.99;81.47;100623.61;1795787;78;25619;-68
2020/12/17 11:02:33;;;;;;;15.40;11.43;;;;;;;4.98;81.09;100608.87;1824827;78;25604;-67
2020/12/17 11:05:02;;;;;;;16.50;11.37;;;;;;;4.93;81.16;100607.36;1798397;78;25741;-68
2020/12/17 11:07:29;;;;;;;13.63;10.67;;;;;;;4.92;81.39;100608.25;1799512;78;27243;-68
2020/12/17 11:09:56;;;;;;;15.33;11.30;;;;;;;4.95;81.07;100601.16;1794124;78;25758;-69
2020/12/17 11:12:25;;;;;;;15.37;12.00;;;;;;;4.93;81.25;100595.63;1798291;78;25753;-69
2020/12/17 11:14:52;;;;;;;14.80;10.97;;;;;;;4.94;81.51;100589.48;1804238;78;25208;-68
2020/12/17 11:17:18;;;;;;;15.00;11.37;;;;;;;4.97;81.31;100589.37;1813346;78;25122;-68
2020/12/17 11:19:45;;;;;;;14.30;11.47;;;;;;;5.03;81.64;100593.05;1809408;78;25200;-68
2020/12/17 11:22:12;;;;;;;14.80;11.53;;;;;;;5.10;81.39;100585.84;1804062;78;25190;-69
2020/12/17 11:24:41;;;;;;;14.53;11.40;;;;;;;5.12;80.99;100583.55;1775281;78;25135;-69
2020/12/17 11:27:09;;;;;;;19.80;12.83;;;;;;;5.14;80.34;100579.11;1781256;78;25115;-68
2020/12/17 11:29:36;;;;;;;16.40;12.87;;;;;;;5.21;80.25;100577.11;1802011;78;25753;-69